sensor_id;sensor_type;location;lat;lon;timestamp;temperature;humidity
12847;DHT22;6492;48.128;8.320;2023-04-16T00:02:08;3.70;76.70
12847;DHT22;6492;48.128;8.320;2023-04-16T00:06:11;3.70;77.00
12847;DHT22;6492;48.128;8.320;2023-04-16T00:10:13;3.70;77.00
12847;DHT22;6492;48.128;8.320;2023-04-16T00:14:15;3.70;77.10
12847;DHT22;6492;48.128;8.320;2023-04-16T00:18:17;3.70;77.20
12847;DHT22;6492;48.128;8.320;2023-04-16T00:22:21;3.70;77.20
12847;DHT22;6492;48.128;8.320;2023-04-16T00:26:23;3.70;77.30
12847;DHT22;6492;48.128;8.320;2023-04-16T00:30:25;3.70;77.30
12847;DHT22;6492;48.128;8.320;2023-04-16T00:34:27;3.70;77.40
12847;DHT22;6492;48.128;8.320;2023-04-16T00:38:30;3.60;77.00
12847;DHT22;6492;48.128;8.320;2023-04-16T00:42:32;3.60;77.30
12847;DHT22;6492;48.128;8.320;2023-04-16T00:46:34;3.60;77.40
12847;DHT22;6492;48.128;8.320;2023-04-16T00:50:37;3.60;77.40
12847;DHT22;6492;48.128;8.320;2023-04-16T00:54:40;3.60;77.50
12847;DHT22;6492;48.128;8.320;2023-04-16T00:58:42;3.70;77.80
12847;DHT22;6492;48.128;8.320;2023-04-16T01:02:44;3.60;77.60
12847;DHT22;6492;48.128;8.320;2023-04-16T01:06:45;3.70;77.90
12847;DHT22;6492;48.128;8.320;2023-04-16T01:10:48;3.60;78.00
12847;DHT22;6492;48.128;8.320;2023-04-16T01:14:51;3.60;78.20
12847;DHT22;6492;48.128;8.320;2023-04-16T01:18:52;3.70;78.40
12847;DHT22;6492;48.128;8.320;2023-04-16T01:22:56;3.70;78.60
12847;DHT22;6492;48.128;8.320;2023-04-16T01:26:57;3.70;78.60
12847;DHT22;6492;48.128;8.320;2023-04-16T01:31:00;3.70;78.70
12847;DHT22;6492;48.128;8.320;2023-04-16T01:35:01;3.70;78.70
12847;DHT22;6492;48.128;8.320;2023-04-16T01:39:05;3.70;78.70
12847;DHT22;6492;48.128;8.320;2023-04-16T01:43:06;3.70;78.70
12847;DHT22;6492;48.128;8.320;2023-04-16T01:47:08;3.70;79.00
12847;DHT22;6492;48.128;8.320;2023-04-16T01:51:10;3.70;79.10
12847;DHT22;6492;48.128;8.320;2023-04-16T01:55:13;3.70;79.20
12847;DHT22;6492;48.128;8.320;2023-04-16T01:59:15;3.70;79.30
12847;DHT22;6492;48.128;8.320;2023-04-16T02:03:16;3.70;79.40
12847;DHT22;6492;48.128;8.320;2023-04-16T02:07:52;3.70;79.50
12847;DHT22;6492;48.128;8.320;2023-04-16T02:11:55;3.70;79.60
12847;DHT22;6492;48.128;8.320;2023-04-16T02:15:57;3.70;79.80
12847;DHT22;6492;48.128;8.320;2023-04-16T02:19:59;3.80;79.90
12847;DHT22;6492;48.128;8.320;2023-04-16T02:24:02;3.70;79.80
12847;DHT22;6492;48.128;8.320;2023-04-16T02:28:06;3.80;79.90
12847;DHT22;6492;48.128;8.320;2023-04-16T02:32:08;3.70;79.90
12847;DHT22;6492;48.128;8.320;2023-04-16T02:36:09;3.70;80.00
12847;DHT22;6492;48.128;8.320;2023-04-16T02:40:12;3.70;80.00
12847;DHT22;6492;48.128;8.320;2023-04-16T02:44:15;3.70;80.10
12847;DHT22;6492;48.128;8.320;2023-04-16T02:48:17;3.80;80.20
12847;DHT22;6492;48.128;8.320;2023-04-16T02:52:19;3.70;80.20
12847;DHT22;6492;48.128;8.320;2023-04-16T02:56:20;3.70;80.20
12847;DHT22;6492;48.128;8.320;2023-04-16T03:00:23;3.70;80.30
12847;DHT22;6492;48.128;8.320;2023-04-16T03:04:25;3.80;80.30
12847;DHT22;6492;48.128;8.320;2023-04-16T03:08:27;3.70;80.40
12847;DHT22;6492;48.128;8.320;2023-04-16T03:12:29;3.70;80.40
12847;DHT22;6492;48.128;8.320;2023-04-16T03:16:32;3.70;80.40
12847;DHT22;6492;48.128;8.320;2023-04-16T03:20:34;3.70;80.40
12847;DHT22;6492;48.128;8.320;2023-04-16T03:24:35;3.70;80.50
12847;DHT22;6492;48.128;8.320;2023-04-16T03:28:37;3.70;80.50
12847;DHT22;6492;48.128;8.320;2023-04-16T03:32:40;3.70;80.50
12847;DHT22;6492;48.128;8.320;2023-04-16T03:36:42;3.60;80.50
12847;DHT22;6492;48.128;8.320;2023-04-16T03:40:44;3.60;80.40
12847;DHT22;6492;48.128;8.320;2023-04-16T03:44:46;3.60;80.50
12847;DHT22;6492;48.128;8.320;2023-04-16T03:48:49;3.60;80.60
12847;DHT22;6492;48.128;8.320;2023-04-16T03:52:51;3.60;80.60
12847;DHT22;6492;48.128;8.320;2023-04-16T03:56:52;3.60;80.60
12847;DHT22;6492;48.128;8.320;2023-04-16T04:00:54;3.60;80.70
12847;DHT22;6492;48.128;8.320;2023-04-16T04:04:57;3.60;80.70
12847;DHT22;6492;48.128;8.320;2023-04-16T04:08:59;3.60;80.70
12847;DHT22;6492;48.128;8.320;2023-04-16T04:13:03;3.60;80.80
12847;DHT22;6492;48.128;8.320;2023-04-16T04:17:05;3.50;80.80
12847;DHT22;6492;48.128;8.320;2023-04-16T04:21:08;3.60;80.80
12847;DHT22;6492;48.128;8.320;2023-04-16T04:25:10;3.60;80.80
12847;DHT22;6492;48.128;8.320;2023-04-16T04:29:12;3.60;80.80
12847;DHT22;6492;48.128;8.320;2023-04-16T04:33:14;3.50;80.90
12847;DHT22;6492;48.128;8.320;2023-04-16T04:37:18;3.60;80.80
12847;DHT22;6492;48.128;8.320;2023-04-16T04:41:20;3.60;80.90
12847;DHT22;6492;48.128;8.320;2023-04-16T04:45:22;3.60;80.90
12847;DHT22;6492;48.128;8.320;2023-04-16T04:49:24;3.50;80.90
12847;DHT22;6492;48.128;8.320;2023-04-16T04:53:27;3.50;80.90
12847;DHT22;6492;48.128;8.320;2023-04-16T04:57:29;3.60;80.90
12847;DHT22;6492;48.128;8.320;2023-04-16T05:01:31;3.60;80.90
12847;DHT22;6492;48.128;8.320;2023-04-16T05:05:33;3.60;81.00
12847;DHT22;6492;48.128;8.320;2023-04-16T05:09:36;3.60;80.90
12847;DHT22;6492;48.128;8.320;2023-04-16T05:13:38;3.60;81.00
12847;DHT22;6492;48.128;8.320;2023-04-16T05:17:53;3.60;81.00
12847;DHT22;6492;48.128;8.320;2023-04-16T05:21:56;3.70;81.00
12847;DHT22;6492;48.128;8.320;2023-04-16T05:25:59;3.80;81.10
12847;DHT22;6492;48.128;8.320;2023-04-16T05:30:01;4.50;81.60
12847;DHT22;6492;48.128;8.320;2023-04-16T05:34:03;3.80;81.20
12847;DHT22;6492;48.128;8.320;2023-04-16T05:38:04;3.90;81.20
12847;DHT22;6492;48.128;8.320;2023-04-16T05:42:08;3.90;81.30
12847;DHT22;6492;48.128;8.320;2023-04-16T05:46:09;3.90;81.30
12847;DHT22;6492;48.128;8.320;2023-04-16T05:50:11;4.00;81.40
12847;DHT22;6492;48.128;8.320;2023-04-16T05:54:13;4.00;81.50
12847;DHT22;6492;48.128;8.320;2023-04-16T05:58:16;4.00;81.40
12847;DHT22;6492;48.128;8.320;2023-04-16T06:02:38;3.90;81.40
12847;DHT22;6492;48.128;8.320;2023-04-16T06:06:39;3.90;81.40
12847;DHT22;6492;48.128;8.320;2023-04-16T06:10:41;3.80;82.10
12847;DHT22;6492;48.128;8.320;2023-04-16T06:14:44;3.90;81.40
12847;DHT22;6492;48.128;8.320;2023-04-16T06:18:46;3.80;81.30
12847;DHT22;6492;48.128;8.320;2023-04-16T06:22:48;3.80;81.30
12847;DHT22;6492;48.128;8.320;2023-04-16T06:26:49;3.80;81.40
12847;DHT22;6492;48.128;8.320;2023-04-16T06:30:52;3.80;81.30
12847;DHT22;6492;48.128;8.320;2023-04-16T06:34:54;3.80;81.30
12847;DHT22;6492;48.128;8.320;2023-04-16T06:38:58;3.80;81.30
12847;DHT22;6492;48.128;8.320;2023-04-16T06:43:01;3.80;81.30
12847;DHT22;6492;48.128;8.320;2023-04-16T06:47:04;3.80;81.40
12847;DHT22;6492;48.128;8.320;2023-04-16T06:51:07;3.80;81.30
12847;DHT22;6492;48.128;8.320;2023-04-16T06:55:12;3.80;81.40
12847;DHT22;6492;48.128;8.320;2023-04-16T06:59:22;3.80;82.20
12847;DHT22;6492;48.128;8.320;2023-04-16T07:03:34;3.90;81.60
12847;DHT22;6492;48.128;8.320;2023-04-16T07:07:36;3.90;82.50
12847;DHT22;6492;48.128;8.320;2023-04-16T07:11:39;3.90;81.70
12847;DHT22;6492;48.128;8.320;2023-04-16T07:15:49;3.90;81.60
12847;DHT22;6492;48.128;8.320;2023-04-16T07:19:52;3.90;81.60
12847;DHT22;6492;48.128;8.320;2023-04-16T07:23:54;3.90;81.60
12847;DHT22;6492;48.128;8.320;2023-04-16T07:27:56;3.90;81.60
12847;DHT22;6492;48.128;8.320;2023-04-16T07:36:31;4.00;81.70
12847;DHT22;6492;48.128;8.320;2023-04-16T07:41:00;4.00;81.70
12847;DHT22;6492;48.128;8.320;2023-04-16T07:45:02;4.10;81.80
12847;DHT22;6492;48.128;8.320;2023-04-16T07:49:04;4.10;81.90
12847;DHT22;6492;48.128;8.320;2023-04-16T07:53:07;4.10;81.90
12847;DHT22;6492;48.128;8.320;2023-04-16T07:57:09;4.20;81.80
12847;DHT22;6492;48.128;8.320;2023-04-16T08:01:27;4.20;81.80
12847;DHT22;6492;48.128;8.320;2023-04-16T08:05:57;4.20;81.80
12847;DHT22;6492;48.128;8.320;2023-04-16T08:10:00;4.20;81.80
12847;DHT22;6492;48.128;8.320;2023-04-16T08:14:02;4.30;82.00
12847;DHT22;6492;48.128;8.320;2023-04-16T08:18:38;4.30;81.80
12847;DHT22;6492;48.128;8.320;2023-04-16T08:23:14;4.30;81.70
12847;DHT22;6492;48.128;8.320;2023-04-16T08:27:32;4.30;81.80
12847;DHT22;6492;48.128;8.320;2023-04-16T08:31:34;4.30;81.80
12847;DHT22;6492;48.128;8.320;2023-04-16T08:35:35;4.40;81.90
12847;DHT22;6492;48.128;8.320;2023-04-16T08:39:37;4.40;81.70
12847;DHT22;6492;48.128;8.320;2023-04-16T08:43:44;4.40;81.60
12847;DHT22;6492;48.128;8.320;2023-04-16T08:47:47;4.40;81.50
12847;DHT22;6492;48.128;8.320;2023-04-16T08:51:57;4.40;81.30
12847;DHT22;6492;48.128;8.320;2023-04-16T08:56:06;4.40;81.30
12847;DHT22;6492;48.128;8.320;2023-04-16T09:00:13;4.50;81.40
12847;DHT22;6492;48.128;8.320;2023-04-16T09:04:16;4.50;80.90
12847;DHT22;6492;48.128;8.320;2023-04-16T09:08:18;4.50;80.90
12847;DHT22;6492;48.128;8.320;2023-04-16T09:12:25;4.50;80.50
12847;DHT22;6492;48.128;8.320;2023-04-16T09:16:32;4.40;80.10
12847;DHT22;6492;48.128;8.320;2023-04-16T09:20:34;4.50;80.40
12847;DHT22;6492;48.128;8.320;2023-04-16T09:24:36;4.50;80.50
12847;DHT22;6492;48.128;8.320;2023-04-16T09:28:40;4.50;80.30
12847;DHT22;6492;48.128;8.320;2023-04-16T09:32:43;4.50;79.90
12847;DHT22;6492;48.128;8.320;2023-04-16T09:37:21;4.50;80.00
12847;DHT22;6492;48.128;8.320;2023-04-16T09:41:25;4.60;80.10
12847;DHT22;6492;48.128;8.320;2023-04-16T09:45:31;4.70;80.20
12847;DHT22;6492;48.128;8.320;2023-04-16T09:49:39;4.70;79.80
12847;DHT22;6492;48.128;8.320;2023-04-16T09:53:52;4.70;79.70
12847;DHT22;6492;48.128;8.320;2023-04-16T09:58:01;4.70;79.90
12847;DHT22;6492;48.128;8.320;2023-04-16T10:02:03;4.90;79.70
12847;DHT22;6492;48.128;8.320;2023-04-16T10:06:14;5.00;79.50
12847;DHT22;6492;48.128;8.320;2023-04-16T10:10:16;5.10;79.00
12847;DHT22;6492;48.128;8.320;2023-04-16T10:14:18;5.10;78.10
12847;DHT22;6492;48.128;8.320;2023-04-16T10:18:26;5.20;77.50
12847;DHT22;6492;48.128;8.320;2023-04-16T10:23:08;5.20;77.00
12847;DHT22;6492;48.128;8.320;2023-04-16T10:27:17;5.20;76.60
12847;DHT22;6492;48.128;8.320;2023-04-16T10:31:46;5.20;76.00
12847;DHT22;6492;48.128;8.320;2023-04-16T10:35:49;5.30;77.40
12847;DHT22;6492;48.128;8.320;2023-04-16T10:39:53;5.40;76.40
12847;DHT22;6492;48.128;8.320;2023-04-16T10:44:03;5.40;74.80
12847;DHT22;6492;48.128;8.320;2023-04-16T10:48:09;5.40;74.40
12847;DHT22;6492;48.128;8.320;2023-04-16T10:52:15;5.60;74.70
12847;DHT22;6492;48.128;8.320;2023-04-16T10:56:24;5.80;74.30
12847;DHT22;6492;48.128;8.320;2023-04-16T11:00:27;6.00;73.30
12847;DHT22;6492;48.128;8.320;2023-04-16T11:04:37;6.00;72.10
12847;DHT22;6492;48.128;8.320;2023-04-16T11:08:40;6.10;68.50
12847;DHT22;6492;48.128;8.320;2023-04-16T11:12:46;6.10;69.20
12847;DHT22;6492;48.128;8.320;2023-04-16T11:16:48;6.10;67.90
12847;DHT22;6492;48.128;8.320;2023-04-16T11:20:50;6.10;69.00
12847;DHT22;6492;48.128;8.320;2023-04-16T11:24:53;6.10;68.70
12847;DHT22;6492;48.128;8.320;2023-04-16T11:28:57;6.00;67.30
12847;DHT22;6492;48.128;8.320;2023-04-16T11:33:01;5.90;67.70
12847;DHT22;6492;48.128;8.320;2023-04-16T11:37:03;5.70;67.70
12847;DHT22;6492;48.128;8.320;2023-04-16T11:41:05;5.50;69.20
12847;DHT22;6492;48.128;8.320;2023-04-16T11:45:10;5.50;70.10
12847;DHT22;6492;48.128;8.320;2023-04-16T11:49:27;5.40;70.10
12847;DHT22;6492;48.128;8.320;2023-04-16T11:53:30;5.30;70.50
12847;DHT22;6492;48.128;8.320;2023-04-16T11:57:32;5.20;71.70
12847;DHT22;6492;48.128;8.320;2023-04-16T12:01:36;5.10;70.70
12847;DHT22;6492;48.128;8.320;2023-04-16T12:05:40;5.10;71.90
12847;DHT22;6492;48.128;8.320;2023-04-16T12:10:04;5.10;73.10
12847;DHT22;6492;48.128;8.320;2023-04-16T12:14:06;5.20;72.20
12847;DHT22;6492;48.128;8.320;2023-04-16T12:18:10;5.30;72.50
12847;DHT22;6492;48.128;8.320;2023-04-16T12:22:12;5.40;73.40
12847;DHT22;6492;48.128;8.320;2023-04-16T12:26:15;5.40;70.60
12847;DHT22;6492;48.128;8.320;2023-04-16T12:30:18;5.50;71.60
12847;DHT22;6492;48.128;8.320;2023-04-16T12:34:21;5.70;70.00
12847;DHT22;6492;48.128;8.320;2023-04-16T12:38:33;5.80;68.20
12847;DHT22;6492;48.128;8.320;2023-04-16T12:42:37;5.70;63.90
12847;DHT22;6492;48.128;8.320;2023-04-16T12:46:39;5.60;63.80
12847;DHT22;6492;48.128;8.320;2023-04-16T12:50:44;5.50;64.00
12847;DHT22;6492;48.128;8.320;2023-04-16T12:54:49;5.40;63.90
12847;DHT22;6492;48.128;8.320;2023-04-16T12:58:50;5.20;64.00
12847;DHT22;6492;48.128;8.320;2023-04-16T13:03:01;5.10;65.80
12847;DHT22;6492;48.128;8.320;2023-04-16T13:07:06;5.10;67.20
12847;DHT22;6492;48.128;8.320;2023-04-16T13:11:15;5.00;67.90
12847;DHT22;6492;48.128;8.320;2023-04-16T13:15:33;5.10;68.90
12847;DHT22;6492;48.128;8.320;2023-04-16T13:19:35;5.20;69.00
12847;DHT22;6492;48.128;8.320;2023-04-16T13:23:40;5.30;68.80
12847;DHT22;6492;48.128;8.320;2023-04-16T13:27:44;5.40;68.80
12847;DHT22;6492;48.128;8.320;2023-04-16T13:31:46;5.40;64.80
12847;DHT22;6492;48.128;8.320;2023-04-16T13:35:48;5.30;64.30
12847;DHT22;6492;48.128;8.320;2023-04-16T13:39:51;5.10;64.70
12847;DHT22;6492;48.128;8.320;2023-04-16T13:43:55;5.00;66.40
12847;DHT22;6492;48.128;8.320;2023-04-16T13:47:58;5.00;67.00
12847;DHT22;6492;48.128;8.320;2023-04-16T13:52:00;5.00;67.50
12847;DHT22;6492;48.128;8.320;2023-04-16T13:56:06;4.90;68.10
12847;DHT22;6492;48.128;8.320;2023-04-16T14:00:08;4.90;68.90
12847;DHT22;6492;48.128;8.320;2023-04-16T14:04:12;4.90;69.30
12847;DHT22;6492;48.128;8.320;2023-04-16T14:08:18;4.80;70.20
12847;DHT22;6492;48.128;8.320;2023-04-16T14:12:36;4.80;70.30
12847;DHT22;6492;48.128;8.320;2023-04-16T14:16:38;4.80;70.70
12847;DHT22;6492;48.128;8.320;2023-04-16T14:20:40;4.80;70.60
12847;DHT22;6492;48.128;8.320;2023-04-16T14:24:41;4.80;69.50
12847;DHT22;6492;48.128;8.320;2023-04-16T14:28:45;5.00;70.20
12847;DHT22;6492;48.128;8.320;2023-04-16T14:32:46;5.00;70.10
12847;DHT22;6492;48.128;8.320;2023-04-16T14:36:49;5.00;68.20
12847;DHT22;6492;48.128;8.320;2023-04-16T14:40:51;4.90;67.20
12847;DHT22;6492;48.128;8.320;2023-04-16T14:45:00;5.00;67.70
12847;DHT22;6492;48.128;8.320;2023-04-16T14:49:02;5.00;67.60
12847;DHT22;6492;48.128;8.320;2023-04-16T14:53:04;5.00;68.00
12847;DHT22;6492;48.128;8.320;2023-04-16T14:57:18;5.00;69.00
12847;DHT22;6492;48.128;8.320;2023-04-16T15:01:21;5.00;69.50
12847;DHT22;6492;48.128;8.320;2023-04-16T15:05:25;5.00;69.40
12847;DHT22;6492;48.128;8.320;2023-04-16T15:09:33;5.00;68.50
12847;DHT22;6492;48.128;8.320;2023-04-16T15:13:35;5.00;68.60
12847;DHT22;6492;48.128;8.320;2023-04-16T15:17:38;4.90;68.00
12847;DHT22;6492;48.128;8.320;2023-04-16T15:21:40;4.90;68.50
12847;DHT22;6492;48.128;8.320;2023-04-16T15:25:48;4.90;69.90
12847;DHT22;6492;48.128;8.320;2023-04-16T15:29:51;4.90;69.90
12847;DHT22;6492;48.128;8.320;2023-04-16T15:34:01;4.90;69.40
12847;DHT22;6492;48.128;8.320;2023-04-16T15:38:03;4.80;69.60
12847;DHT22;6492;48.128;8.320;2023-04-16T15:42:06;4.80;69.10
12847;DHT22;6492;48.128;8.320;2023-04-16T15:46:08;4.80;69.00
12847;DHT22;6492;48.128;8.320;2023-04-16T15:50:11;4.70;69.80
12847;DHT22;6492;48.128;8.320;2023-04-16T15:54:13;4.70;71.00
12847;DHT22;6492;48.128;8.320;2023-04-16T15:58:14;4.70;71.30
12847;DHT22;6492;48.128;8.320;2023-04-16T16:02:24;4.70;72.10
12847;DHT22;6492;48.128;8.320;2023-04-16T16:06:28;4.70;73.10
12847;DHT22;6492;48.128;8.320;2023-04-16T16:10:29;4.70;73.70
12847;DHT22;6492;48.128;8.320;2023-04-16T16:14:32;4.70;73.70
12847;DHT22;6492;48.128;8.320;2023-04-16T16:18:33;4.60;73.30
12847;DHT22;6492;48.128;8.320;2023-04-16T16:22:37;4.60;73.60
12847;DHT22;6492;48.128;8.320;2023-04-16T16:26:40;4.70;73.50
12847;DHT22;6492;48.128;8.320;2023-04-16T16:30:43;4.70;73.50
12847;DHT22;6492;48.128;8.320;2023-04-16T16:34:46;4.70;73.70
12847;DHT22;6492;48.128;8.320;2023-04-16T16:38:53;4.60;73.40
12847;DHT22;6492;48.128;8.320;2023-04-16T16:42:57;4.60;73.50
12847;DHT22;6492;48.128;8.320;2023-04-16T16:46:59;4.60;73.60
12847;DHT22;6492;48.128;8.320;2023-04-16T16:51:18;4.70;73.60
12847;DHT22;6492;48.128;8.320;2023-04-16T16:55:36;4.60;73.60
12847;DHT22;6492;48.128;8.320;2023-04-16T16:59:58;4.60;73.80
12847;DHT22;6492;48.128;8.320;2023-04-16T17:03:59;4.60;73.90
12847;DHT22;6492;48.128;8.320;2023-04-16T17:08:02;4.60;74.00
12847;DHT22;6492;48.128;8.320;2023-04-16T17:12:08;4.60;74.20
12847;DHT22;6492;48.128;8.320;2023-04-16T17:16:10;4.60;74.20
12847;DHT22;6492;48.128;8.320;2023-04-16T17:20:22;4.60;75.50
12847;DHT22;6492;48.128;8.320;2023-04-16T17:24:26;4.60;74.80
12847;DHT22;6492;48.128;8.320;2023-04-16T17:28:42;4.50;75.20
12847;DHT22;6492;48.128;8.320;2023-04-16T17:32:43;4.50;76.20
12847;DHT22;6492;48.128;8.320;2023-04-16T17:36:57;4.50;76.00
12847;DHT22;6492;48.128;8.320;2023-04-16T17:40:59;4.50;76.40
12847;DHT22;6492;48.128;8.320;2023-04-16T17:45:09;4.50;76.70
12847;DHT22;6492;48.128;8.320;2023-04-16T17:49:11;4.40;77.10
12847;DHT22;6492;48.128;8.320;2023-04-16T17:53:20;4.50;77.70
12847;DHT22;6492;48.128;8.320;2023-04-16T17:57:30;4.40;78.50
12847;DHT22;6492;48.128;8.320;2023-04-16T18:01:33;4.50;78.40
12847;DHT22;6492;48.128;8.320;2023-04-16T18:05:39;4.50;78.50
12847;DHT22;6492;48.128;8.320;2023-04-16T18:09:42;4.40;78.50
12847;DHT22;6492;48.128;8.320;2023-04-16T18:13:54;4.40;78.80
12847;DHT22;6492;48.128;8.320;2023-04-16T18:17:57;4.40;79.10
12847;DHT22;6492;48.128;8.320;2023-04-16T18:21:59;4.40;79.10
12847;DHT22;6492;48.128;8.320;2023-04-16T18:26:02;4.40;79.30
12847;DHT22;6492;48.128;8.320;2023-04-16T18:30:05;4.40;79.30
12847;DHT22;6492;48.128;8.320;2023-04-16T18:34:11;4.40;79.30
12847;DHT22;6492;48.128;8.320;2023-04-16T18:38:12;4.40;79.50
12847;DHT22;6492;48.128;8.320;2023-04-16T18:42:34;4.40;79.70
12847;DHT22;6492;48.128;8.320;2023-04-16T18:46:38;4.40;79.80
12847;DHT22;6492;48.128;8.320;2023-04-16T18:50:55;4.50;80.10
12847;DHT22;6492;48.128;8.320;2023-04-16T18:55:03;4.50;80.30
12847;DHT22;6492;48.128;8.320;2023-04-16T18:59:16;4.40;80.10
12847;DHT22;6492;48.128;8.320;2023-04-16T19:03:40;4.50;80.50
12847;DHT22;6492;48.128;8.320;2023-04-16T19:07:43;4.50;80.60
12847;DHT22;6492;48.128;8.320;2023-04-16T19:11:45;4.50;80.70
12847;DHT22;6492;48.128;8.320;2023-04-16T19:15:48;4.40;80.60
12847;DHT22;6492;48.128;8.320;2023-04-16T19:19:50;4.50;80.80
12847;DHT22;6492;48.128;8.320;2023-04-16T19:23:54;4.40;80.60
12847;DHT22;6492;48.128;8.320;2023-04-16T19:27:55;4.40;80.80
12847;DHT22;6492;48.128;8.320;2023-04-16T19:31:57;4.50;81.00
12847;DHT22;6492;48.128;8.320;2023-04-16T19:36:01;4.40;81.70
12847;DHT22;6492;48.128;8.320;2023-04-16T19:40:09;4.40;80.90
12847;DHT22;6492;48.128;8.320;2023-04-16T19:44:11;4.40;81.00
12847;DHT22;6492;48.128;8.320;2023-04-16T19:48:26;4.50;81.20
12847;DHT22;6492;48.128;8.320;2023-04-16T19:52:31;4.50;81.30
12847;DHT22;6492;48.128;8.320;2023-04-16T19:56:38;4.50;81.30
12847;DHT22;6492;48.128;8.320;2023-04-16T20:00:39;4.40;81.20
12847;DHT22;6492;48.128;8.320;2023-04-16T20:04:46;4.50;81.30
12847;DHT22;6492;48.128;8.320;2023-04-16T20:08:50;4.40;81.30
12847;DHT22;6492;48.128;8.320;2023-04-16T20:12:58;4.50;81.50
12847;DHT22;6492;48.128;8.320;2023-04-16T20:17:00;4.50;81.40
12847;DHT22;6492;48.128;8.320;2023-04-16T20:21:02;4.50;81.40
12847;DHT22;6492;48.128;8.320;2023-04-16T20:25:06;4.50;81.30
12847;DHT22;6492;48.128;8.320;2023-04-16T20:29:09;4.50;81.20
12847;DHT22;6492;48.128;8.320;2023-04-16T20:33:11;4.60;81.10
12847;DHT22;6492;48.128;8.320;2023-04-16T20:37:13;4.60;80.90
12847;DHT22;6492;48.128;8.320;2023-04-16T20:41:28;4.60;80.80
12847;DHT22;6492;48.128;8.320;2023-04-16T20:45:31;4.50;80.70
12847;DHT22;6492;48.128;8.320;2023-04-16T20:49:37;4.50;80.70
12847;DHT22;6492;48.128;8.320;2023-04-16T20:53:46;4.50;80.70
12847;DHT22;6492;48.128;8.320;2023-04-16T20:57:51;4.50;80.60
12847;DHT22;6492;48.128;8.320;2023-04-16T21:01:54;4.50;80.60
12847;DHT22;6492;48.128;8.320;2023-04-16T21:05:56;4.50;80.60
12847;DHT22;6492;48.128;8.320;2023-04-16T21:09:57;4.50;81.40
12847;DHT22;6492;48.128;8.320;2023-04-16T21:14:00;4.50;80.50
12847;DHT22;6492;48.128;8.320;2023-04-16T21:18:03;4.40;80.40
12847;DHT22;6492;48.128;8.320;2023-04-16T21:22:05;4.50;80.60
12847;DHT22;6492;48.128;8.320;2023-04-16T21:26:06;4.50;80.60
12847;DHT22;6492;48.128;8.320;2023-04-16T21:30:09;4.40;80.50
12847;DHT22;6492;48.128;8.320;2023-04-16T21:34:18;4.40;80.40
12847;DHT22;6492;48.128;8.320;2023-04-16T21:38:20;4.40;80.30
12847;DHT22;6492;48.128;8.320;2023-04-16T21:42:22;4.50;80.40
12847;DHT22;6492;48.128;8.320;2023-04-16T21:46:24;4.40;80.10
12847;DHT22;6492;48.128;8.320;2023-04-16T21:50:28;4.40;80.10
12847;DHT22;6492;48.128;8.320;2023-04-16T21:54:30;4.40;80.10
12847;DHT22;6492;48.128;8.320;2023-04-16T21:58:32;4.40;79.90
12847;DHT22;6492;48.128;8.320;2023-04-16T22:02:37;4.40;80.00
12847;DHT22;6492;48.128;8.320;2023-04-16T22:06:40;4.40;79.90
12847;DHT22;6492;48.128;8.320;2023-04-16T22:10:59;4.40;79.80
12847;DHT22;6492;48.128;8.320;2023-04-16T22:15:02;4.40;79.80
12847;DHT22;6492;48.128;8.320;2023-04-16T22:19:04;4.40;79.90
12847;DHT22;6492;48.128;8.320;2023-04-16T22:23:08;4.40;79.80
12847;DHT22;6492;48.128;8.320;2023-04-16T22:27:09;4.40;79.80
12847;DHT22;6492;48.128;8.320;2023-04-16T22:31:11;4.40;79.80
12847;DHT22;6492;48.128;8.320;2023-04-16T22:35:13;4.40;79.80
12847;DHT22;6492;48.128;8.320;2023-04-16T22:39:16;4.40;79.50
12847;DHT22;6492;48.128;8.320;2023-04-16T22:43:18;4.40;79.50
12847;DHT22;6492;48.128;8.320;2023-04-16T22:47:20;4.40;79.30
12847;DHT22;6492;48.128;8.320;2023-04-16T22:51:22;4.30;79.20
12847;DHT22;6492;48.128;8.320;2023-04-16T22:55:25;4.40;79.40
12847;DHT22;6492;48.128;8.320;2023-04-16T22:59:27;4.40;79.20
12847;DHT22;6492;48.128;8.320;2023-04-16T23:03:28;4.40;79.20
12847;DHT22;6492;48.128;8.320;2023-04-16T23:07:30;4.40;79.00
12847;DHT22;6492;48.128;8.320;2023-04-16T23:11:33;4.40;79.00
12847;DHT22;6492;48.128;8.320;2023-04-16T23:15:35;4.30;79.00
12847;DHT22;6492;48.128;8.320;2023-04-16T23:19:37;4.40;79.00
12847;DHT22;6492;48.128;8.320;2023-04-16T23:23:39;4.40;78.90
12847;DHT22;6492;48.128;8.320;2023-04-16T23:27:42;4.40;78.90
12847;DHT22;6492;48.128;8.320;2023-04-16T23:31:43;4.40;79.00
12847;DHT22;6492;48.128;8.320;2023-04-16T23:35:45;4.40;78.90
12847;DHT22;6492;48.128;8.320;2023-04-16T23:39:47;4.30;79.10
12847;DHT22;6492;48.128;8.320;2023-04-16T23:43:50;4.30;79.00
12847;DHT22;6492;48.128;8.320;2023-04-16T23:47:52;4.30;79.00
12847;DHT22;6492;48.128;8.320;2023-04-16T23:52:01;4.30;79.10
12847;DHT22;6492;48.128;8.320;2023-04-16T23:56:04;4.30;79.20
